Allegre, Kentucky
Current Conditions -  °F | °C
As of 7:58 PM on Friday 21 Nov 2014 (Local Time) from KHOP Reporting Station
Overcast Overcast  
Wind Chill: 45°   Ceiling: 6500
Heat Index: 45°   Visibility: 10mi
Dew Point: 25°   Wind: 3mph
Humidity: 46%   Direction: 90°E
Pressure: 30.35"   Gusts: NA
Location:  36.93°N, 87.22°W
Report Text: KHOP 220158Z AUTO 09003KT 10SM SCT042 OVC065 07/M04 A3035 RMK AO2 SLP283 T00741037
Loading
Personal Weather Stations






























Interactive Weather Map New forecast layout! Learn more

10-Day Weather Forecast

Advertisements
Track Severe Weather on mobile